sensor_id;sensor_type;location;lat;lon;timestamp;P1;durP1;ratioP1;P2;durP2;ratioP2
5333;SDS011;2689;50.954;7.116;2022-07-25T00:01:26;7.37;;;6.23;;
5333;SDS011;2689;50.954;7.116;2022-07-25T00:03:52;8.97;;;6.77;;
5333;SDS011;2689;50.954;7.116;2022-07-25T00:06:19;6.90;;;6.17;;
5333;SDS011;2689;50.954;7.116;2022-07-25T00:08:46;7.07;;;6.33;;
5333;SDS011;2689;50.954;7.116;2022-07-25T00:11:13;6.43;;;5.27;;
5333;SDS011;2689;50.954;7.116;2022-07-25T00:13:41;7.20;;;6.20;;
5333;SDS011;2689;50.954;7.116;2022-07-25T00:16:08;7.47;;;6.40;;
5333;SDS011;2689;50.954;7.116;2022-07-25T00:18:34;9.90;;;5.97;;
5333;SDS011;2689;50.954;7.116;2022-07-25T00:21:01;12.83;;;5.83;;
5333;SDS011;2689;50.954;7.116;2022-07-25T00:23:28;7.20;;;6.37;;
5333;SDS011;2689;50.954;7.116;2022-07-25T00:25:55;7.70;;;6.23;;
5333;SDS011;2689;50.954;7.116;2022-07-25T00:28:22;7.10;;;6.10;;
5333;SDS011;2689;50.954;7.116;2022-07-25T00:30:50;7.90;;;6.73;;
5333;SDS011;2689;50.954;7.116;2022-07-25T00:33:16;9.50;;;6.57;;
5333;SDS011;2689;50.954;7.116;2022-07-25T00:35:43;8.70;;;6.60;;
5333;SDS011;2689;50.954;7.116;2022-07-25T00:38:10;10.93;;;5.90;;
5333;SDS011;2689;50.954;7.116;2022-07-25T00:40:37;6.27;;;5.70;;
5333;SDS011;2689;50.954;7.116;2022-07-25T00:43:04;9.93;;;6.30;;
5333;SDS011;2689;50.954;7.116;2022-07-25T00:45:31;7.37;;;6.27;;
5333;SDS011;2689;50.954;7.116;2022-07-25T00:47:59;7.33;;;6.20;;
5333;SDS011;2689;50.954;7.116;2022-07-25T00:50:26;7.00;;;6.30;;
5333;SDS011;2689;50.954;7.116;2022-07-25T00:52:52;7.13;;;5.60;;
5333;SDS011;2689;50.954;7.116;2022-07-25T00:55:20;6.40;;;5.80;;
5333;SDS011;2689;50.954;7.116;2022-07-25T00:57:50;6.47;;;5.77;;
5333;SDS011;2689;50.954;7.116;2022-07-25T01:00:17;6.23;;;5.63;;
5333;SDS011;2689;50.954;7.116;2022-07-25T01:02:44;6.63;;;6.03;;
5333;SDS011;2689;50.954;7.116;2022-07-25T01:05:13;6.67;;;5.90;;
5333;SDS011;2689;50.954;7.116;2022-07-25T01:07:39;9.03;;;6.20;;
5333;SDS011;2689;50.954;7.116;2022-07-25T01:10:07;7.00;;;6.10;;
5333;SDS011;2689;50.954;7.116;2022-07-25T01:12:46;7.07;;;6.37;;
5333;SDS011;2689;50.954;7.116;2022-07-25T01:15:14;6.70;;;5.20;;
5333;SDS011;2689;50.954;7.116;2022-07-25T01:17:41;7.37;;;6.00;;
5333;SDS011;2689;50.954;7.116;2022-07-25T01:20:12;6.30;;;5.60;;
5333;SDS011;2689;50.954;7.116;2022-07-25T01:22:40;6.33;;;5.73;;
5333;SDS011;2689;50.954;7.116;2022-07-25T01:25:07;9.53;;;6.10;;
5333;SDS011;2689;50.954;7.116;2022-07-25T01:27:34;7.23;;;6.00;;
5333;SDS011;2689;50.954;7.116;2022-07-25T01:30:01;8.03;;;7.17;;
5333;SDS011;2689;50.954;7.116;2022-07-25T01:32:29;6.87;;;6.17;;
5333;SDS011;2689;50.954;7.116;2022-07-25T01:34:55;8.97;;;5.87;;
5333;SDS011;2689;50.954;7.116;2022-07-25T01:37:23;7.90;;;6.50;;
5333;SDS011;2689;50.954;7.116;2022-07-25T01:39:50;6.13;;;5.53;;
5333;SDS011;2689;50.954;7.116;2022-07-25T01:42:17;6.23;;;5.63;;
5333;SDS011;2689;50.954;7.116;2022-07-25T01:44:43;7.70;;;5.90;;
5333;SDS011;2689;50.954;7.116;2022-07-25T01:47:10;9.10;;;5.97;;
5333;SDS011;2689;50.954;7.116;2022-07-25T01:49:37;10.90;;;6.47;;
5333;SDS011;2689;50.954;7.116;2022-07-25T01:52:04;8.07;;;6.17;;
5333;SDS011;2689;50.954;7.116;2022-07-25T01:54:32;6.20;;;5.60;;
5333;SDS011;2689;50.954;7.116;2022-07-25T01:56:59;7.50;;;5.10;;
5333;SDS011;2689;50.954;7.116;2022-07-25T01:59:26;6.10;;;5.27;;
5333;SDS011;2689;50.954;7.116;2022-07-25T02:01:53;7.50;;;6.63;;
5333;SDS011;2689;50.954;7.116;2022-07-25T02:04:19;7.20;;;6.07;;
5333;SDS011;2689;50.954;7.116;2022-07-25T02:06:46;7.00;;;5.93;;
5333;SDS011;2689;50.954;7.116;2022-07-25T02:09:13;9.00;;;5.67;;
5333;SDS011;2689;50.954;7.116;2022-07-25T02:11:41;6.33;;;5.50;;
5333;SDS011;2689;50.954;7.116;2022-07-25T02:14:08;8.17;;;5.77;;
5333;SDS011;2689;50.954;7.116;2022-07-25T02:16:35;8.70;;;5.77;;
5333;SDS011;2689;50.954;7.116;2022-07-25T02:19:01;9.20;;;5.73;;
5333;SDS011;2689;50.954;7.116;2022-07-25T02:21:28;6.27;;;5.70;;
5333;SDS011;2689;50.954;7.116;2022-07-25T02:23:55;7.13;;;5.63;;
5333;SDS011;2689;50.954;7.116;2022-07-25T02:26:22;6.00;;;5.40;;
5333;SDS011;2689;50.954;7.116;2022-07-25T02:28:50;6.17;;;5.57;;
5333;SDS011;2689;50.954;7.116;2022-07-25T02:31:17;6.90;;;5.90;;
5333;SDS011;2689;50.954;7.116;2022-07-25T02:33:43;7.80;;;5.90;;
5333;SDS011;2689;50.954;7.116;2022-07-25T02:36:10;8.60;;;6.60;;
5333;SDS011;2689;50.954;7.116;2022-07-25T02:38:37;6.70;;;6.10;;
5333;SDS011;2689;50.954;7.116;2022-07-25T02:41:04;6.70;;;6.10;;
5333;SDS011;2689;50.954;7.116;2022-07-25T02:43:32;6.83;;;5.40;;
5333;SDS011;2689;50.954;7.116;2022-07-25T02:46:00;7.13;;;6.17;;
5333;SDS011;2689;50.954;7.116;2022-07-25T02:48:26;6.70;;;6.00;;
5333;SDS011;2689;50.954;7.116;2022-07-25T02:50:53;7.60;;;5.90;;
5333;SDS011;2689;50.954;7.116;2022-07-25T02:53:20;12.03;;;7.10;;
5333;SDS011;2689;50.954;7.116;2022-07-25T02:55:46;8.27;;;6.20;;
5333;SDS011;2689;50.954;7.116;2022-07-25T02:58:13;8.80;;;6.10;;
5333;SDS011;2689;50.954;7.116;2022-07-25T03:00:40;6.70;;;6.00;;
5333;SDS011;2689;50.954;7.116;2022-07-25T03:03:08;9.03;;;6.90;;
5333;SDS011;2689;50.954;7.116;2022-07-25T03:05:35;6.40;;;5.73;;
5333;SDS011;2689;50.954;7.116;2022-07-25T03:08:01;8.03;;;6.87;;
5333;SDS011;2689;50.954;7.116;2022-07-25T03:10:28;7.00;;;6.40;;
5333;SDS011;2689;50.954;7.116;2022-07-25T03:12:55;7.33;;;6.00;;
5333;SDS011;2689;50.954;7.116;2022-07-25T03:15:21;6.70;;;6.10;;
5333;SDS011;2689;50.954;7.116;2022-07-25T03:17:48;7.87;;;5.77;;
5333;SDS011;2689;50.954;7.116;2022-07-25T03:20:16;8.63;;;6.60;;
5333;SDS011;2689;50.954;7.116;2022-07-25T03:22:43;9.80;;;6.30;;
5333;SDS011;2689;50.954;7.116;2022-07-25T03:25:10;7.80;;;6.63;;
5333;SDS011;2689;50.954;7.116;2022-07-25T03:27:36;9.67;;;6.87;;
5333;SDS011;2689;50.954;7.116;2022-07-25T03:30:04;9.10;;;7.13;;
5333;SDS011;2689;50.954;7.116;2022-07-25T03:32:32;8.60;;;6.67;;
5333;SDS011;2689;50.954;7.116;2022-07-25T03:34:58;8.57;;;6.90;;
5333;SDS011;2689;50.954;7.116;2022-07-25T03:37:27;8.73;;;6.73;;
5333;SDS011;2689;50.954;7.116;2022-07-25T03:39:53;10.13;;;7.03;;
5333;SDS011;2689;50.954;7.116;2022-07-25T03:42:20;8.27;;;6.37;;
5333;SDS011;2689;50.954;7.116;2022-07-25T03:44:48;8.60;;;7.13;;
5333;SDS011;2689;50.954;7.116;2022-07-25T03:47:14;7.80;;;7.10;;
5333;SDS011;2689;50.954;7.116;2022-07-25T03:49:41;6.70;;;6.00;;
5333;SDS011;2689;50.954;7.116;2022-07-25T03:52:08;7.27;;;6.37;;
5333;SDS011;2689;50.954;7.116;2022-07-25T03:54:36;8.40;;;6.60;;
5333;SDS011;2689;50.954;7.116;2022-07-25T03:57:03;8.77;;;6.37;;
5333;SDS011;2689;50.954;7.116;2022-07-25T03:59:30;7.40;;;6.57;;
5333;SDS011;2689;50.954;7.116;2022-07-25T04:01:57;7.20;;;6.40;;
5333;SDS011;2689;50.954;7.116;2022-07-25T04:04:23;7.10;;;6.43;;
5333;SDS011;2689;50.954;7.116;2022-07-25T04:06:50;9.13;;;6.97;;
5333;SDS011;2689;50.954;7.116;2022-07-25T04:09:17;8.57;;;5.37;;
5333;SDS011;2689;50.954;7.116;2022-07-25T04:11:45;7.87;;;6.20;;
5333;SDS011;2689;50.954;7.116;2022-07-25T04:14:11;9.93;;;6.30;;
5333;SDS011;2689;50.954;7.116;2022-07-25T04:16:38;7.60;;;5.90;;
5333;SDS011;2689;50.954;7.116;2022-07-25T04:19:05;6.83;;;6.13;;
5333;SDS011;2689;50.954;7.116;2022-07-25T04:21:32;5.80;;;5.30;;
5333;SDS011;2689;50.954;7.116;2022-07-25T04:23:59;6.87;;;6.27;;
5333;SDS011;2689;50.954;7.116;2022-07-25T04:26:26;9.07;;;6.50;;
5333;SDS011;2689;50.954;7.116;2022-07-25T04:28:55;6.23;;;5.63;;
5333;SDS011;2689;50.954;7.116;2022-07-25T04:31:22;7.73;;;6.07;;
5333;SDS011;2689;50.954;7.116;2022-07-25T04:33:49;7.60;;;5.90;;
5333;SDS011;2689;50.954;7.116;2022-07-25T04:36:16;9.00;;;6.60;;
5333;SDS011;2689;50.954;7.116;2022-07-25T04:38:43;6.37;;;5.70;;
5333;SDS011;2689;50.954;7.116;2022-07-25T04:41:09;7.73;;;6.50;;
5333;SDS011;2689;50.954;7.116;2022-07-25T04:43:36;8.23;;;6.47;;
5333;SDS011;2689;50.954;7.116;2022-07-25T04:46:04;8.43;;;6.57;;
5333;SDS011;2689;50.954;7.116;2022-07-25T04:48:31;7.60;;;5.70;;
5333;SDS011;2689;50.954;7.116;2022-07-25T04:50:58;8.27;;;6.03;;
5333;SDS011;2689;50.954;7.116;2022-07-25T04:53:26;21.10;;;17.13;;
5333;SDS011;2689;50.954;7.116;2022-07-25T04:55:53;8.17;;;5.53;;
5333;SDS011;2689;50.954;7.116;2022-07-25T04:58:19;7.33;;;5.70;;
5333;SDS011;2689;50.954;7.116;2022-07-25T05:00:46;6.47;;;5.87;;
5333;SDS011;2689;50.954;7.116;2022-07-25T05:03:14;6.60;;;5.83;;
5333;SDS011;2689;50.954;7.116;2022-07-25T05:05:41;8.77;;;5.77;;
5333;SDS011;2689;50.954;7.116;2022-07-25T05:08:08;9.20;;;6.50;;
5333;SDS011;2689;50.954;7.116;2022-07-25T05:10:35;6.40;;;5.67;;
5333;SDS011;2689;50.954;7.116;2022-07-25T05:13:01;7.20;;;6.50;;
5333;SDS011;2689;50.954;7.116;2022-07-25T05:15:28;6.77;;;6.07;;
5333;SDS011;2689;50.954;7.116;2022-07-25T05:17:55;7.67;;;5.70;;
5333;SDS011;2689;50.954;7.116;2022-07-25T05:20:23;6.53;;;5.83;;
5333;SDS011;2689;50.954;7.116;2022-07-25T05:22:50;7.80;;;5.67;;
5333;SDS011;2689;50.954;7.116;2022-07-25T05:25:17;6.33;;;5.73;;
5333;SDS011;2689;50.954;7.116;2022-07-25T05:27:44;7.33;;;5.10;;
5333;SDS011;2689;50.954;7.116;2022-07-25T05:30:11;6.67;;;5.37;;
5333;SDS011;2689;50.954;7.116;2022-07-25T05:32:39;7.73;;;5.57;;
5333;SDS011;2689;50.954;7.116;2022-07-25T05:35:07;5.50;;;5.00;;
5333;SDS011;2689;50.954;7.116;2022-07-25T05:37:36;6.03;;;5.40;;
5333;SDS011;2689;50.954;7.116;2022-07-25T05:40:04;8.20;;;5.50;;
5333;SDS011;2689;50.954;7.116;2022-07-25T05:42:31;6.97;;;5.60;;
5333;SDS011;2689;50.954;7.116;2022-07-25T05:44:58;7.10;;;5.30;;
5333;SDS011;2689;50.954;7.116;2022-07-25T05:47:25;6.93;;;5.73;;
5333;SDS011;2689;50.954;7.116;2022-07-25T05:49:52;6.73;;;5.07;;
5333;SDS011;2689;50.954;7.116;2022-07-25T05:52:19;6.10;;;5.17;;
5333;SDS011;2689;50.954;7.116;2022-07-25T05:54:47;6.30;;;5.10;;
5333;SDS011;2689;50.954;7.116;2022-07-25T05:57:13;5.93;;;5.33;;
5333;SDS011;2689;50.954;7.116;2022-07-25T05:59:40;6.13;;;5.33;;
5333;SDS011;2689;50.954;7.116;2022-07-25T06:02:07;5.97;;;5.00;;
5333;SDS011;2689;50.954;7.116;2022-07-25T06:04:34;7.53;;;5.70;;
5333;SDS011;2689;50.954;7.116;2022-07-25T06:07:00;5.97;;;5.37;;
5333;SDS011;2689;50.954;7.116;2022-07-25T06:09:27;5.80;;;5.20;;
5333;SDS011;2689;50.954;7.116;2022-07-25T06:11:57;6.47;;;5.47;;
5333;SDS011;2689;50.954;7.116;2022-07-25T06:14:24;7.10;;;5.60;;
5333;SDS011;2689;50.954;7.116;2022-07-25T06:16:51;5.40;;;4.90;;
5333;SDS011;2689;50.954;7.116;2022-07-25T06:19:18;6.27;;;5.00;;
5333;SDS011;2689;50.954;7.116;2022-07-25T06:21:45;9.23;;;5.73;;
5333;SDS011;2689;50.954;7.116;2022-07-25T06:24:11;5.63;;;5.00;;
5333;SDS011;2689;50.954;7.116;2022-07-25T06:26:38;9.17;;;5.23;;
5333;SDS011;2689;50.954;7.116;2022-07-25T06:29:06;5.87;;;5.03;;
5333;SDS011;2689;50.954;7.116;2022-07-25T06:31:33;6.83;;;5.73;;
5333;SDS011;2689;50.954;7.116;2022-07-25T06:33:59;5.73;;;4.90;;
5333;SDS011;2689;50.954;7.116;2022-07-25T06:36:26;6.03;;;5.33;;
5333;SDS011;2689;50.954;7.116;2022-07-25T06:38:53;6.83;;;5.73;;
5333;SDS011;2689;50.954;7.116;2022-07-25T06:41:20;7.20;;;5.00;;
5333;SDS011;2689;50.954;7.116;2022-07-25T06:43:46;6.97;;;5.10;;
5333;SDS011;2689;50.954;7.116;2022-07-25T06:46:14;5.90;;;4.90;;
5333;SDS011;2689;50.954;7.116;2022-07-25T06:48:41;8.13;;;6.10;;
5333;SDS011;2689;50.954;7.116;2022-07-25T06:51:08;9.40;;;5.30;;
5333;SDS011;2689;50.954;7.116;2022-07-25T06:53:34;8.17;;;5.67;;
5333;SDS011;2689;50.954;7.116;2022-07-25T06:56:01;5.60;;;5.10;;
5333;SDS011;2689;50.954;7.116;2022-07-25T06:58:28;5.50;;;4.93;;
5333;SDS011;2689;50.954;7.116;2022-07-25T07:00:55;7.53;;;4.90;;
5333;SDS011;2689;50.954;7.116;2022-07-25T07:03:23;5.40;;;4.90;;
5333;SDS011;2689;50.954;7.116;2022-07-25T07:05:50;7.10;;;5.27;;
5333;SDS011;2689;50.954;7.116;2022-07-25T07:08:17;6.63;;;5.50;;
5333;SDS011;2689;50.954;7.116;2022-07-25T07:10:43;5.93;;;5.33;;
5333;SDS011;2689;50.954;7.116;2022-07-25T07:13:11;5.30;;;4.77;;
5333;SDS011;2689;50.954;7.116;2022-07-25T07:15:42;6.17;;;5.37;;
5333;SDS011;2689;50.954;7.116;2022-07-25T07:18:11;5.83;;;5.00;;
5333;SDS011;2689;50.954;7.116;2022-07-25T07:20:39;6.60;;;5.80;;
5333;SDS011;2689;50.954;7.116;2022-07-25T07:23:05;8.60;;;6.23;;
5333;SDS011;2689;50.954;7.116;2022-07-25T07:25:32;7.57;;;5.37;;
5333;SDS011;2689;50.954;7.116;2022-07-25T07:27:59;8.77;;;5.63;;
5333;SDS011;2689;50.954;7.116;2022-07-25T07:30:26;9.80;;;5.00;;
5333;SDS011;2689;50.954;7.116;2022-07-25T07:32:53;6.47;;;5.67;;
5333;SDS011;2689;50.954;7.116;2022-07-25T07:35:20;7.27;;;5.37;;
5333;SDS011;2689;50.954;7.116;2022-07-25T07:37:48;6.53;;;5.93;;
5333;SDS011;2689;50.954;7.116;2022-07-25T07:40:16;10.10;;;5.63;;
5333;SDS011;2689;50.954;7.116;2022-07-25T07:42:44;7.80;;;5.73;;
5333;SDS011;2689;50.954;7.116;2022-07-25T07:45:12;5.83;;;5.33;;
5333;SDS011;2689;50.954;7.116;2022-07-25T07:47:40;6.53;;;5.20;;
5333;SDS011;2689;50.954;7.116;2022-07-25T07:50:08;6.07;;;5.20;;
5333;SDS011;2689;50.954;7.116;2022-07-25T07:52:35;7.03;;;5.23;;
5333;SDS011;2689;50.954;7.116;2022-07-25T07:55:05;5.40;;;4.90;;
5333;SDS011;2689;50.954;7.116;2022-07-25T07:57:49;6.27;;;5.30;;
5333;SDS011;2689;50.954;7.116;2022-07-25T08:00:17;6.70;;;5.10;;
5333;SDS011;2689;50.954;7.116;2022-07-25T08:02:44;7.97;;;5.60;;
5333;SDS011;2689;50.954;7.116;2022-07-25T08:05:18;6.53;;;4.60;;
5333;SDS011;2689;50.954;7.116;2022-07-25T08:07:47;7.43;;;5.70;;
5333;SDS011;2689;50.954;7.116;2022-07-25T08:10:17;8.80;;;5.50;;
5333;SDS011;2689;50.954;7.116;2022-07-25T08:12:45;6.23;;;4.93;;
5333;SDS011;2689;50.954;7.116;2022-07-25T08:15:11;7.43;;;5.70;;
5333;SDS011;2689;50.954;7.116;2022-07-25T08:17:39;5.80;;;5.30;;
5333;SDS011;2689;50.954;7.116;2022-07-25T08:20:06;7.00;;;5.30;;
5333;SDS011;2689;50.954;7.116;2022-07-25T08:22:34;5.93;;;5.20;;
5333;SDS011;2689;50.954;7.116;2022-07-25T08:25:02;8.23;;;5.13;;
5333;SDS011;2689;50.954;7.116;2022-07-25T08:27:31;5.90;;;5.30;;
5333;SDS011;2689;50.954;7.116;2022-07-25T08:29:57;6.47;;;5.40;;
5333;SDS011;2689;50.954;7.116;2022-07-25T08:32:25;6.93;;;5.10;;
5333;SDS011;2689;50.954;7.116;2022-07-25T08:34:52;7.83;;;5.50;;
5333;SDS011;2689;50.954;7.116;2022-07-25T08:37:19;6.33;;;5.40;;
5333;SDS011;2689;50.954;7.116;2022-07-25T08:39:46;10.30;;;6.17;;
5333;SDS011;2689;50.954;7.116;2022-07-25T08:42:13;5.73;;;5.17;;
5333;SDS011;2689;50.954;7.116;2022-07-25T08:44:43;7.90;;;5.23;;
5333;SDS011;2689;50.954;7.116;2022-07-25T08:47:14;5.37;;;4.87;;
5333;SDS011;2689;50.954;7.116;2022-07-25T08:49:42;6.00;;;5.23;;
5333;SDS011;2689;50.954;7.116;2022-07-25T08:52:09;8.10;;;5.80;;
5333;SDS011;2689;50.954;7.116;2022-07-25T08:54:36;5.20;;;4.70;;
5333;SDS011;2689;50.954;7.116;2022-07-25T08:57:03;12.30;;;4.90;;
5333;SDS011;2689;50.954;7.116;2022-07-25T08:59:30;6.60;;;5.40;;
5333;SDS011;2689;50.954;7.116;2022-07-25T09:01:58;8.80;;;5.20;;
5333;SDS011;2689;50.954;7.116;2022-07-25T09:04:27;10.00;;;5.53;;
5333;SDS011;2689;50.954;7.116;2022-07-25T09:06:54;5.50;;;5.00;;
5333;SDS011;2689;50.954;7.116;2022-07-25T09:09:28;6.53;;;5.40;;
5333;SDS011;2689;50.954;7.116;2022-07-25T09:11:56;7.20;;;5.23;;
5333;SDS011;2689;50.954;7.116;2022-07-25T09:14:23;7.80;;;5.73;;
5333;SDS011;2689;50.954;7.116;2022-07-25T09:16:50;6.30;;;5.27;;
5333;SDS011;2689;50.954;7.116;2022-07-25T09:19:19;6.50;;;5.77;;
5333;SDS011;2689;50.954;7.116;2022-07-25T09:21:56;7.57;;;5.77;;
5333;SDS011;2689;50.954;7.116;2022-07-25T09:24:25;6.83;;;4.87;;
5333;SDS011;2689;50.954;7.116;2022-07-25T09:26:53;6.00;;;5.17;;
5333;SDS011;2689;50.954;7.116;2022-07-25T09:29:21;5.83;;;4.90;;
5333;SDS011;2689;50.954;7.116;2022-07-25T09:31:50;7.80;;;5.27;;
5333;SDS011;2689;50.954;7.116;2022-07-25T09:34:32;6.70;;;4.43;;
5333;SDS011;2689;50.954;7.116;2022-07-25T09:37:00;10.20;;;5.47;;
5333;SDS011;2689;50.954;7.116;2022-07-25T09:39:32;5.20;;;4.70;;
5333;SDS011;2689;50.954;7.116;2022-07-25T09:42:00;5.87;;;5.27;;
5333;SDS011;2689;50.954;7.116;2022-07-25T09:44:27;8.20;;;5.00;;
5333;SDS011;2689;50.954;7.116;2022-07-25T09:46:54;6.90;;;5.13;;
5333;SDS011;2689;50.954;7.116;2022-07-25T09:49:23;10.50;;;5.30;;
5333;SDS011;2689;50.954;7.116;2022-07-25T09:51:52;5.53;;;5.00;;
5333;SDS011;2689;50.954;7.116;2022-07-25T09:56:48;6.17;;;5.47;;
5333;SDS011;2689;50.954;7.116;2022-07-25T09:59:15;14.00;;;5.93;;
5333;SDS011;2689;50.954;7.116;2022-07-25T10:01:44;7.00;;;5.70;;
5333;SDS011;2689;50.954;7.116;2022-07-25T10:04:18;12.23;;;6.50;;
5333;SDS011;2689;50.954;7.116;2022-07-25T10:06:49;7.90;;;5.90;;
5333;SDS011;2689;50.954;7.116;2022-07-25T10:09:22;11.60;;;8.20;;
5333;SDS011;2689;50.954;7.116;2022-07-25T10:12:01;12.60;;;7.20;;
5333;SDS011;2689;50.954;7.116;2022-07-25T10:14:29;9.97;;;6.17;;
5333;SDS011;2689;50.954;7.116;2022-07-25T10:16:55;10.27;;;5.43;;
5333;SDS011;2689;50.954;7.116;2022-07-25T10:19:38;7.13;;;5.90;;
5333;SDS011;2689;50.954;7.116;2022-07-25T10:22:08;10.30;;;6.90;;
5333;SDS011;2689;50.954;7.116;2022-07-25T10:24:36;11.43;;;6.60;;
5333;SDS011;2689;50.954;7.116;2022-07-25T10:27:06;14.00;;;11.37;;
5333;SDS011;2689;50.954;7.116;2022-07-25T10:29:34;8.00;;;6.23;;
5333;SDS011;2689;50.954;7.116;2022-07-25T10:32:05;7.97;;;6.00;;
5333;SDS011;2689;50.954;7.116;2022-07-25T10:34:33;8.70;;;6.60;;
5333;SDS011;2689;50.954;7.116;2022-07-25T10:37:09;8.40;;;6.97;;
5333;SDS011;2689;50.954;7.116;2022-07-25T10:39:37;11.13;;;6.90;;
5333;SDS011;2689;50.954;7.116;2022-07-25T10:42:05;9.67;;;6.20;;
5333;SDS011;2689;50.954;7.116;2022-07-25T10:44:41;7.17;;;6.03;;
5333;SDS011;2689;50.954;7.116;2022-07-25T10:47:09;8.47;;;6.17;;
5333;SDS011;2689;50.954;7.116;2022-07-25T10:49:38;7.27;;;6.30;;
5333;SDS011;2689;50.954;7.116;2022-07-25T10:52:06;10.83;;;6.10;;
5333;SDS011;2689;50.954;7.116;2022-07-25T10:54:39;6.83;;;5.63;;
5333;SDS011;2689;50.954;7.116;2022-07-25T10:57:13;9.23;;;7.90;;
5333;SDS011;2689;50.954;7.116;2022-07-25T10:59:40;14.73;;;8.37;;
5333;SDS011;2689;50.954;7.116;2022-07-25T11:02:08;8.17;;;7.00;;
5333;SDS011;2689;50.954;7.116;2022-07-25T11:04:40;8.57;;;6.63;;
5333;SDS011;2689;50.954;7.116;2022-07-25T11:07:08;9.70;;;6.97;;
5333;SDS011;2689;50.954;7.116;2022-07-25T11:09:36;13.30;;;7.70;;
5333;SDS011;2689;50.954;7.116;2022-07-25T11:12:04;8.73;;;7.27;;
5333;SDS011;2689;50.954;7.116;2022-07-25T11:14:32;7.60;;;6.10;;
5333;SDS011;2689;50.954;7.116;2022-07-25T11:17:10;8.53;;;6.03;;
5333;SDS011;2689;50.954;7.116;2022-07-25T11:19:39;11.37;;;6.10;;
5333;SDS011;2689;50.954;7.116;2022-07-25T11:22:08;9.80;;;6.00;;
5333;SDS011;2689;50.954;7.116;2022-07-25T11:24:37;12.67;;;6.10;;
5333;SDS011;2689;50.954;7.116;2022-07-25T11:27:05;12.93;;;6.33;;
5333;SDS011;2689;50.954;7.116;2022-07-25T11:29:34;8.57;;;6.13;;
5333;SDS011;2689;50.954;7.116;2022-07-25T11:32:02;13.40;;;6.13;;
5333;SDS011;2689;50.954;7.116;2022-07-25T11:34:31;6.20;;;5.60;;
5333;SDS011;2689;50.954;7.116;2022-07-25T11:37:00;13.00;;;6.20;;
5333;SDS011;2689;50.954;7.116;2022-07-25T11:39:30;10.43;;;7.27;;
5333;SDS011;2689;50.954;7.116;2022-07-25T11:42:01;10.97;;;5.40;;
5333;SDS011;2689;50.954;7.116;2022-07-25T11:44:33;9.20;;;5.60;;
5333;SDS011;2689;50.954;7.116;2022-07-25T11:47:01;10.03;;;5.80;;
5333;SDS011;2689;50.954;7.116;2022-07-25T11:49:29;8.73;;;5.10;;
5333;SDS011;2689;50.954;7.116;2022-07-25T11:51:56;12.17;;;6.13;;
5333;SDS011;2689;50.954;7.116;2022-07-25T11:54:23;7.77;;;5.60;;
5333;SDS011;2689;50.954;7.116;2022-07-25T11:56:51;6.53;;;5.10;;
5333;SDS011;2689;50.954;7.116;2022-07-25T11:59:18;6.03;;;5.20;;
5333;SDS011;2689;50.954;7.116;2022-07-25T12:01:44;5.50;;;4.30;;
5333;SDS011;2689;50.954;7.116;2022-07-25T12:04:12;9.30;;;5.07;;
5333;SDS011;2689;50.954;7.116;2022-07-25T12:06:40;8.77;;;5.20;;
5333;SDS011;2689;50.954;7.116;2022-07-25T12:09:08;8.33;;;4.50;;
5333;SDS011;2689;50.954;7.116;2022-07-25T12:11:36;7.17;;;4.77;;
5333;SDS011;2689;50.954;7.116;2022-07-25T12:14:04;8.40;;;5.20;;
5333;SDS011;2689;50.954;7.116;2022-07-25T12:16:32;7.90;;;5.53;;
5333;SDS011;2689;50.954;7.116;2022-07-25T12:18:58;7.70;;;5.07;;
5333;SDS011;2689;50.954;7.116;2022-07-25T12:21:26;10.17;;;5.17;;
5333;SDS011;2689;50.954;7.116;2022-07-25T12:23:53;5.47;;;4.47;;
5333;SDS011;2689;50.954;7.116;2022-07-25T12:26:19;5.20;;;4.13;;
5333;SDS011;2689;50.954;7.116;2022-07-25T12:28:46;5.73;;;4.00;;
5333;SDS011;2689;50.954;7.116;2022-07-25T12:31:14;8.27;;;4.27;;
5333;SDS011;2689;50.954;7.116;2022-07-25T12:33:41;4.80;;;3.60;;
5333;SDS011;2689;50.954;7.116;2022-07-25T12:36:10;6.57;;;3.80;;
5333;SDS011;2689;50.954;7.116;2022-07-25T12:38:37;9.23;;;4.90;;
5333;SDS011;2689;50.954;7.116;2022-07-25T12:41:04;8.37;;;5.23;;
5333;SDS011;2689;50.954;7.116;2022-07-25T12:43:31;8.70;;;4.10;;
5333;SDS011;2689;50.954;7.116;2022-07-25T12:45:58;7.07;;;4.60;;
5333;SDS011;2689;50.954;7.116;2022-07-25T12:48:26;4.70;;;4.13;;
5333;SDS011;2689;50.954;7.116;2022-07-25T12:50:53;6.10;;;4.40;;
5333;SDS011;2689;50.954;7.116;2022-07-25T12:53:20;6.70;;;5.10;;
5333;SDS011;2689;50.954;7.116;2022-07-25T12:55:46;6.33;;;3.90;;
5333;SDS011;2689;50.954;7.116;2022-07-25T12:58:13;8.50;;;4.10;;
5333;SDS011;2689;50.954;7.116;2022-07-25T13:00:41;6.97;;;4.03;;
5333;SDS011;2689;50.954;7.116;2022-07-25T13:03:08;7.70;;;3.90;;
5333;SDS011;2689;50.954;7.116;2022-07-25T13:05:36;6.00;;;2.90;;
5333;SDS011;2689;50.954;7.116;2022-07-25T13:08:05;9.30;;;4.10;;
5333;SDS011;2689;50.954;7.116;2022-07-25T13:10:32;9.40;;;5.27;;
5333;SDS011;2689;50.954;7.116;2022-07-25T13:12:58;5.03;;;3.40;;
5333;SDS011;2689;50.954;7.116;2022-07-25T13:15:32;6.10;;;4.70;;
5333;SDS011;2689;50.954;7.116;2022-07-25T13:18:00;6.50;;;3.03;;
5333;SDS011;2689;50.954;7.116;2022-07-25T13:20:27;3.83;;;2.60;;
5333;SDS011;2689;50.954;7.116;2022-07-25T13:22:56;7.00;;;3.30;;
5333;SDS011;2689;50.954;7.116;2022-07-25T13:25:23;6.63;;;3.33;;
5333;SDS011;2689;50.954;7.116;2022-07-25T13:27:50;6.17;;;3.30;;
5333;SDS011;2689;50.954;7.116;2022-07-25T13:30:16;3.90;;;3.03;;
5333;SDS011;2689;50.954;7.116;2022-07-25T13:32:43;7.47;;;4.07;;
5333;SDS011;2689;50.954;7.116;2022-07-25T13:35:10;7.93;;;2.83;;
5333;SDS011;2689;50.954;7.116;2022-07-25T13:37:37;8.83;;;3.40;;
5333;SDS011;2689;50.954;7.116;2022-07-25T13:40:05;5.63;;;2.80;;
5333;SDS011;2689;50.954;7.116;2022-07-25T13:42:33;9.50;;;3.57;;
5333;SDS011;2689;50.954;7.116;2022-07-25T13:44:59;5.73;;;3.20;;
5333;SDS011;2689;50.954;7.116;2022-07-25T13:47:26;3.40;;;2.30;;
5333;SDS011;2689;50.954;7.116;2022-07-25T13:49:54;5.17;;;3.23;;
5333;SDS011;2689;50.954;7.116;2022-07-25T13:52:21;6.90;;;3.40;;
5333;SDS011;2689;50.954;7.116;2022-07-25T13:54:47;5.73;;;3.00;;
5333;SDS011;2689;50.954;7.116;2022-07-25T13:57:15;13.40;;;3.30;;
5333;SDS011;2689;50.954;7.116;2022-07-25T13:59:43;10.50;;;2.97;;
5333;SDS011;2689;50.954;7.116;2022-07-25T14:02:10;4.40;;;2.53;;
5333;SDS011;2689;50.954;7.116;2022-07-25T14:04:36;6.73;;;3.00;;
5333;SDS011;2689;50.954;7.116;2022-07-25T14:07:04;5.53;;;2.90;;
5333;SDS011;2689;50.954;7.116;2022-07-25T14:09:30;4.87;;;2.30;;
5333;SDS011;2689;50.954;7.116;2022-07-25T14:11:57;4.77;;;2.37;;
5333;SDS011;2689;50.954;7.116;2022-07-25T14:14:25;4.30;;;2.80;;
5333;SDS011;2689;50.954;7.116;2022-07-25T14:16:52;7.80;;;3.53;;
5333;SDS011;2689;50.954;7.116;2022-07-25T14:19:19;4.93;;;1.93;;
5333;SDS011;2689;50.954;7.116;2022-07-25T14:21:47;5.00;;;1.67;;
5333;SDS011;2689;50.954;7.116;2022-07-25T14:24:14;4.23;;;2.20;;
5333;SDS011;2689;50.954;7.116;2022-07-25T14:26:41;9.73;;;2.70;;
5333;SDS011;2689;50.954;7.116;2022-07-25T14:29:07;8.87;;;2.37;;
5333;SDS011;2689;50.954;7.116;2022-07-25T14:31:38;4.70;;;2.77;;
5333;SDS011;2689;50.954;7.116;2022-07-25T14:34:05;8.03;;;2.10;;
5333;SDS011;2689;50.954;7.116;2022-07-25T14:36:33;2.27;;;1.77;;
5333;SDS011;2689;50.954;7.116;2022-07-25T14:39:00;3.87;;;1.80;;
5333;SDS011;2689;50.954;7.116;2022-07-25T14:41:28;8.90;;;2.30;;
5333;SDS011;2689;50.954;7.116;2022-07-25T14:43:55;3.23;;;2.30;;
5333;SDS011;2689;50.954;7.116;2022-07-25T14:46:21;7.70;;;1.93;;
5333;SDS011;2689;50.954;7.116;2022-07-25T14:48:49;7.33;;;3.10;;
5333;SDS011;2689;50.954;7.116;2022-07-25T14:51:17;5.87;;;3.27;;
5333;SDS011;2689;50.954;7.116;2022-07-25T14:53:45;3.73;;;2.50;;
5333;SDS011;2689;50.954;7.116;2022-07-25T14:56:11;5.00;;;3.00;;
5333;SDS011;2689;50.954;7.116;2022-07-25T14:58:38;4.97;;;1.90;;
5333;SDS011;2689;50.954;7.116;2022-07-25T15:01:05;5.43;;;2.03;;
5333;SDS011;2689;50.954;7.116;2022-07-25T15:03:33;3.77;;;2.17;;
5333;SDS011;2689;50.954;7.116;2022-07-25T15:06:01;3.40;;;1.93;;
5333;SDS011;2689;50.954;7.116;2022-07-25T15:08:30;8.43;;;2.43;;
5333;SDS011;2689;50.954;7.116;2022-07-25T15:10:57;6.33;;;2.67;;
5333;SDS011;2689;50.954;7.116;2022-07-25T15:13:23;7.33;;;3.07;;
5333;SDS011;2689;50.954;7.116;2022-07-25T15:15:50;11.17;;;2.30;;
5333;SDS011;2689;50.954;7.116;2022-07-25T15:18:17;7.77;;;2.23;;
5333;SDS011;2689;50.954;7.116;2022-07-25T15:20:43;3.60;;;2.00;;